createdAt,value
2023-03-04T00:00:36.186Z,1.77
2023-03-04T00:01:36.162Z,1.87
2023-03-04T00:02:36.138Z,1.78
2023-03-04T00:03:36.132Z,1.94
2023-03-04T00:04:36.126Z,1.87
2023-03-04T00:05:36.097Z,1.94
2023-03-04T00:06:36.083Z,1.91
2023-03-04T00:07:36.078Z,1.95
2023-03-04T00:08:36.057Z,2.00
2023-03-04T00:09:36.065Z,1.95
2023-03-04T00:10:36.035Z,1.92
2023-03-04T00:11:36.035Z,2.04
2023-03-04T00:12:36.026Z,1.97
2023-03-04T00:13:35.965Z,2.06
2023-03-04T00:14:35.968Z,1.94
2023-03-04T00:15:35.993Z,2.02
2023-03-04T00:16:35.998Z,1.97
2023-03-04T00:17:35.911Z,1.97
2023-03-04T00:18:35.902Z,2.02
2023-03-04T00:19:35.878Z,1.99
2023-03-04T00:20:35.862Z,2.02
2023-03-04T00:21:35.864Z,2.02
2023-03-04T00:22:35.838Z,1.91
2023-03-04T00:23:35.868Z,2.07
2023-03-04T00:24:35.825Z,2.08
2023-03-04T00:25:35.819Z,2.06
2023-03-04T00:26:35.833Z,2.06
2023-03-04T00:27:35.822Z,2.11
2023-03-04T00:28:35.784Z,2.06
2023-03-04T00:29:35.750Z,2.08
2023-03-04T00:30:35.739Z,2.13
2023-03-04T00:31:35.770Z,1.95
2023-03-04T00:32:35.780Z,2.04
2023-03-04T00:33:35.688Z,2.14
2023-03-04T00:34:35.665Z,2.14
2023-03-04T00:35:35.662Z,2.04
2023-03-04T00:36:35.626Z,2.00
2023-03-04T00:37:35.822Z,1.97
2023-03-04T00:38:35.608Z,1.97
2023-03-04T00:39:35.598Z,2.02
2023-03-04T00:40:35.609Z,2.08
2023-03-04T00:41:35.562Z,2.00
2023-03-04T00:42:35.541Z,2.06
2023-03-04T00:43:35.617Z,2.18
2023-03-04T00:44:35.566Z,2.07
2023-03-04T00:45:35.544Z,2.14
2023-03-04T00:46:35.488Z,2.14
2023-03-04T00:47:35.478Z,2.00
2023-03-04T00:48:35.460Z,2.00
2023-03-04T00:49:35.477Z,2.07
2023-03-04T00:50:35.458Z,2.00
2023-03-04T00:51:35.462Z,2.07
2023-03-04T00:52:35.427Z,2.13
2023-03-04T00:53:35.414Z,2.08
2023-03-04T00:54:35.424Z,2.04
2023-03-04T00:55:35.377Z,2.06
2023-03-04T00:56:35.413Z,2.08
2023-03-04T00:57:35.339Z,1.97
2023-03-04T00:58:35.336Z,2.07
2023-03-04T00:59:35.310Z,2.11
2023-03-04T01:00:35.287Z,1.99
2023-03-04T01:01:35.340Z,2.00
2023-03-04T01:02:35.381Z,1.95
2023-03-04T01:03:35.280Z,1.94
2023-03-04T01:04:35.241Z,2.13
2023-03-04T01:05:35.203Z,2.14
2023-03-04T01:06:35.197Z,2.11
2023-03-04T01:07:35.199Z,2.04
2023-03-04T01:08:35.167Z,2.17
2023-03-04T01:09:35.164Z,2.11
2023-03-04T01:10:35.149Z,2.13
2023-03-04T01:11:35.154Z,2.02
2023-03-04T01:12:35.120Z,2.08
2023-03-04T01:13:35.109Z,2.11
2023-03-04T01:14:35.137Z,2.14
2023-03-04T01:15:35.118Z,2.18
2023-03-04T01:16:35.144Z,2.00
2023-03-04T01:17:35.125Z,2.15
2023-03-04T01:18:35.046Z,2.20
2023-03-04T01:19:35.040Z,2.20
2023-03-04T01:20:35.014Z,2.25
2023-03-04T01:21:35.006Z,2.11
2023-03-04T01:22:34.974Z,2.18
2023-03-04T01:23:34.941Z,2.10
2023-03-04T01:24:34.953Z,2.10
2023-03-04T01:25:34.944Z,2.14
2023-03-04T01:26:34.906Z,2.18
2023-03-04T01:27:34.886Z,2.14
2023-03-04T01:28:34.966Z,2.13
2023-03-04T01:29:34.909Z,2.18
2023-03-04T01:30:34.910Z,2.13
2023-03-04T01:31:34.907Z,2.15
2023-03-04T01:32:34.973Z,2.14
2023-03-04T01:33:34.874Z,2.10
2023-03-04T01:34:34.845Z,2.15
2023-03-04T01:35:34.804Z,2.17
2023-03-04T01:36:34.839Z,2.18
2023-03-04T01:37:34.747Z,2.18
2023-03-04T01:38:34.770Z,2.22
2023-03-04T01:39:34.793Z,2.26
2023-03-04T01:40:34.762Z,2.22
2023-03-04T01:41:34.688Z,2.29
2023-03-04T01:42:34.707Z,2.22
2023-03-04T01:43:34.712Z,2.18
2023-03-04T01:44:34.663Z,2.17
2023-03-04T01:45:34.920Z,2.22
2023-03-04T01:46:34.739Z,2.22
2023-03-04T01:47:34.646Z,2.20
2023-03-04T01:48:34.642Z,2.25
2023-03-04T01:49:34.612Z,2.32
2023-03-04T01:50:34.558Z,2.29
2023-03-04T01:51:34.534Z,2.28
2023-03-04T01:52:34.723Z,2.39
2023-03-04T01:53:34.549Z,2.36
2023-03-04T01:54:34.493Z,2.36
2023-03-04T01:55:34.512Z,2.44
2023-03-04T01:56:34.491Z,2.46
2023-03-04T01:57:34.499Z,2.36
2023-03-04T01:58:34.461Z,2.43
2023-03-04T01:59:34.416Z,2.46
2023-03-04T02:00:34.424Z,2.49
2023-03-04T02:01:34.414Z,2.46
2023-03-04T02:02:34.428Z,2.46
2023-03-04T02:03:34.427Z,2.50
2023-03-04T02:04:34.492Z,2.49
2023-03-04T02:05:34.368Z,2.47
2023-03-04T02:06:34.386Z,2.50
2023-03-04T02:07:34.367Z,2.46
2023-03-04T02:08:34.328Z,2.46
2023-03-04T02:09:34.292Z,2.57
2023-03-04T02:10:34.295Z,2.50
2023-03-04T02:11:34.273Z,2.46
2023-03-04T02:12:34.303Z,2.54
2023-03-04T02:13:34.249Z,2.57
2023-03-04T02:14:34.220Z,2.57
2023-03-04T02:15:34.187Z,2.51
2023-03-04T02:16:34.180Z,2.47
2023-03-04T02:17:34.157Z,2.51
2023-03-04T02:18:34.164Z,2.54
2023-03-04T02:19:34.167Z,2.60
2023-03-04T02:20:34.127Z,2.61
2023-03-04T02:21:34.119Z,2.62
2023-03-04T02:22:34.085Z,2.60
2023-03-04T02:23:34.086Z,2.65
2023-03-04T02:24:34.065Z,2.56
2023-03-04T02:25:34.085Z,2.61
2023-03-04T02:26:34.073Z,2.56
2023-03-04T02:27:34.040Z,2.62
2023-03-04T02:28:34.037Z,2.56
2023-03-04T02:29:33.998Z,2.62
2023-03-04T02:30:33.979Z,2.64
2023-03-04T02:31:34.037Z,2.67
2023-03-04T02:32:34.092Z,2.62
2023-03-04T02:33:33.946Z,2.69
2023-03-04T02:34:33.925Z,2.71
2023-03-04T02:35:33.943Z,2.69
2023-03-04T02:36:33.876Z,2.72
2023-03-04T02:37:33.896Z,2.68
2023-03-04T02:38:33.837Z,2.71
2023-03-04T02:39:33.880Z,2.68
2023-03-04T02:40:33.845Z,2.68
2023-03-04T02:41:33.832Z,2.68
2023-03-04T02:42:33.808Z,2.67
2023-03-04T02:43:33.780Z,2.65
2023-03-04T02:44:33.760Z,2.64
2023-03-04T02:45:33.788Z,2.68
2023-03-04T02:46:33.801Z,2.65
2023-03-04T02:47:33.722Z,2.67
2023-03-04T02:48:33.722Z,2.68
2023-03-04T02:49:33.721Z,2.65
2023-03-04T02:50:33.707Z,2.65
2023-03-04T02:51:33.688Z,2.67
2023-03-04T02:52:33.669Z,2.71
2023-03-04T02:53:33.651Z,2.67
2023-03-04T02:54:33.631Z,2.67
2023-03-04T02:55:33.610Z,2.67
2023-03-04T02:56:33.588Z,2.62
2023-03-04T02:57:33.611Z,2.69
2023-03-04T02:58:33.614Z,2.67
2023-03-04T02:59:33.552Z,2.67
2023-03-04T03:00:33.578Z,2.69
2023-03-04T03:01:33.588Z,2.67
2023-03-04T03:02:33.579Z,2.67
2023-03-04T03:03:33.484Z,2.65
2023-03-04T03:04:33.479Z,2.72
2023-03-04T03:05:33.465Z,2.67
2023-03-04T03:06:33.451Z,2.67
2023-03-04T03:07:33.483Z,2.72
2023-03-04T03:10:33.422Z,2.67
2023-03-04T03:11:33.365Z,2.71
2023-03-04T03:12:33.354Z,2.72
2023-03-04T03:13:33.344Z,2.71
2023-03-04T03:14:33.342Z,2.68
2023-03-04T03:15:33.322Z,2.67
2023-03-04T03:16:33.361Z,2.69
2023-03-04T03:17:33.303Z,2.71
2023-03-04T03:18:33.277Z,2.67
2023-03-04T03:19:33.262Z,2.74
2023-03-04T03:20:33.266Z,2.83
2023-03-04T03:21:33.294Z,2.77
2023-03-04T03:22:33.221Z,2.75
2023-03-04T03:23:33.219Z,2.80
2023-03-04T03:24:33.203Z,2.75
2023-03-04T03:25:33.175Z,2.79
2023-03-04T03:26:33.170Z,2.75
2023-03-04T03:27:33.141Z,2.86
2023-03-04T03:28:33.205Z,2.80
2023-03-04T03:29:33.128Z,2.69
2023-03-04T03:30:33.138Z,2.79
2023-03-04T03:31:33.135Z,2.74
2023-03-04T03:32:33.162Z,2.74
2023-03-04T03:33:33.061Z,2.75
2023-03-04T03:34:33.079Z,2.77
2023-03-04T03:35:33.059Z,2.72
2023-03-04T03:36:33.092Z,2.65
2023-03-04T03:37:33.025Z,2.69
2023-03-04T03:38:33.006Z,2.67
2023-03-04T03:39:32.998Z,2.65
2023-03-04T03:40:32.983Z,2.64
2023-03-04T03:41:32.950Z,2.67
2023-03-04T03:42:32.920Z,2.68
2023-03-04T03:43:32.917Z,2.64
2023-03-04T03:44:32.887Z,2.64
2023-03-04T03:45:33.026Z,2.65
2023-03-04T03:46:32.922Z,2.62
2023-03-04T03:47:32.876Z,2.64
2023-03-04T03:48:32.821Z,2.60
2023-03-04T03:49:32.830Z,2.60
2023-03-04T03:50:32.866Z,2.61
2023-03-04T03:51:32.843Z,2.57
2023-03-04T03:52:32.789Z,2.50
2023-03-04T03:53:32.781Z,2.51
2023-03-04T03:54:32.748Z,2.50
2023-03-04T03:55:32.766Z,2.62
2023-03-04T03:56:32.719Z,2.62
2023-03-04T03:57:32.700Z,2.60
2023-03-04T03:58:32.697Z,2.64
2023-03-04T03:59:32.700Z,2.62
2023-03-04T04:00:32.701Z,2.67
2023-03-04T04:01:32.671Z,2.68
2023-03-04T04:02:32.747Z,2.61
2023-03-04T04:03:32.643Z,2.71
2023-03-04T04:04:32.614Z,2.54
2023-03-04T04:05:32.586Z,2.61
2023-03-04T04:06:32.570Z,2.64
2023-03-04T04:07:32.581Z,2.49
2023-03-04T04:08:32.564Z,2.44
2023-03-04T04:09:32.553Z,2.47
2023-03-04T04:10:32.512Z,2.53
2023-03-04T04:11:32.567Z,2.57
2023-03-04T04:12:32.506Z,2.61
2023-03-04T04:13:32.510Z,2.61
2023-03-04T04:14:32.453Z,2.67
2023-03-04T04:15:32.475Z,2.68
2023-03-04T04:16:32.533Z,2.69
2023-03-04T04:17:32.437Z,2.64
2023-03-04T04:18:32.412Z,2.80
2023-03-04T04:19:32.395Z,2.65
2023-03-04T04:20:32.400Z,2.65
2023-03-04T04:21:32.354Z,2.68
2023-03-04T04:22:32.348Z,2.69
2023-03-04T04:23:32.336Z,2.65
2023-03-04T04:24:32.344Z,2.71
2023-03-04T04:25:32.323Z,2.75
2023-03-04T04:26:32.359Z,2.68
2023-03-04T04:27:32.308Z,2.68
2023-03-04T04:28:32.296Z,2.72
2023-03-04T04:29:32.263Z,2.71
2023-03-04T04:30:32.342Z,2.82
2023-03-04T04:31:32.239Z,2.72
2023-03-04T04:32:32.257Z,2.77
2023-03-04T04:33:32.191Z,2.68
2023-03-04T04:34:32.168Z,2.65
2023-03-04T04:35:32.185Z,2.72
2023-03-04T04:36:32.161Z,2.80
2023-03-04T04:37:32.133Z,2.75
2023-03-04T04:38:32.105Z,2.69
2023-03-04T04:39:32.089Z,2.65
2023-03-04T04:40:32.105Z,2.67
2023-03-04T04:41:32.081Z,2.69
2023-03-04T04:42:32.051Z,2.72
2023-03-04T04:43:32.074Z,2.77
2023-03-04T04:44:32.029Z,2.75
2023-03-04T04:45:32.006Z,2.75
2023-03-04T04:46:31.985Z,2.74
2023-03-04T04:47:31.990Z,2.80
2023-03-04T04:48:31.994Z,2.75
2023-03-04T04:49:31.960Z,2.75
2023-03-04T04:50:33.142Z,2.75
2023-03-04T04:51:31.944Z,2.80
2023-03-04T04:52:31.942Z,2.82
2023-03-04T04:53:31.924Z,2.85
2023-03-04T04:54:31.892Z,2.74
2023-03-04T04:55:31.893Z,2.74
2023-03-04T04:56:31.880Z,2.82
2023-03-04T04:57:31.861Z,2.83
2023-03-04T04:58:31.819Z,2.89
2023-03-04T04:59:31.851Z,2.83
2023-03-04T05:00:31.793Z,2.82
2023-03-04T05:01:31.901Z,2.86
2023-03-04T05:02:31.769Z,2.83
2023-03-04T05:03:31.864Z,2.77
2023-03-04T05:04:31.764Z,2.87
2023-03-04T05:05:31.723Z,2.86
2023-03-04T05:06:31.723Z,2.79
2023-03-04T05:07:31.704Z,2.82
2023-03-04T05:08:31.698Z,2.87
2023-03-04T05:09:31.683Z,2.86
2023-03-04T05:10:31.664Z,2.87
2023-03-04T05:11:31.640Z,2.90
2023-03-04T05:12:31.643Z,2.89
2023-03-04T05:13:31.622Z,2.80
2023-03-04T05:14:31.618Z,2.86
2023-03-04T05:15:31.679Z,2.80
2023-03-04T05:16:31.569Z,2.87
2023-03-04T05:17:31.556Z,2.86
2023-03-04T05:18:31.562Z,2.83
2023-03-04T05:19:31.524Z,2.93
2023-03-04T05:20:31.516Z,2.83
2023-03-04T05:21:31.508Z,2.92
2023-03-04T05:22:31.487Z,2.83
2023-03-04T05:23:31.462Z,2.83
2023-03-04T05:24:31.446Z,2.95
2023-03-04T05:25:31.436Z,2.82
2023-03-04T05:26:31.451Z,2.95
2023-03-04T05:27:31.408Z,2.89
2023-03-04T05:28:31.394Z,2.85
2023-03-04T05:29:31.380Z,2.97
2023-03-04T05:30:31.371Z,2.79
2023-03-04T05:31:31.462Z,2.92
2023-03-04T05:32:31.415Z,2.93
2023-03-04T05:33:31.326Z,2.86
2023-03-04T05:34:31.313Z,2.92
2023-03-04T05:35:31.299Z,2.97
2023-03-04T05:36:31.288Z,2.85
2023-03-04T05:37:31.272Z,2.85
2023-03-04T05:38:31.256Z,2.80
2023-03-04T05:39:31.251Z,2.90
2023-03-04T05:40:31.233Z,2.89
2023-03-04T05:41:31.211Z,2.92
2023-03-04T05:42:31.196Z,2.95
2023-03-04T05:43:31.191Z,2.98
2023-03-04T05:44:31.162Z,2.95
2023-03-04T05:45:31.150Z,2.90
2023-03-04T05:46:33.462Z,3.00
2023-03-04T05:47:31.156Z,2.97
2023-03-04T05:48:31.132Z,2.90
2023-03-04T05:49:31.096Z,2.86
2023-03-04T05:50:31.090Z,2.98
2023-03-04T05:51:31.053Z,2.97
2023-03-04T05:52:31.060Z,3.00
2023-03-04T05:53:31.045Z,2.98
2023-03-04T05:54:31.028Z,2.98
2023-03-04T05:55:31.210Z,3.00
2023-03-04T05:56:31.005Z,3.01
2023-03-04T05:57:32.498Z,2.98
2023-03-04T05:58:31.173Z,2.95
2023-03-04T05:59:30.955Z,2.95
2023-03-04T06:00:31.167Z,3.01
2023-03-04T06:01:30.926Z,2.95
2023-03-04T06:02:30.928Z,2.97
2023-03-04T06:03:30.965Z,3.03
2023-03-04T06:04:30.896Z,3.05
2023-03-04T06:05:30.886Z,3.07
2023-03-04T06:06:30.850Z,3.03
2023-03-04T06:07:30.822Z,3.13
2023-03-04T06:08:30.814Z,3.08
2023-03-04T06:09:30.805Z,3.13
2023-03-04T06:10:30.995Z,3.18
2023-03-04T06:11:30.769Z,3.18
2023-03-04T06:12:30.771Z,3.13
2023-03-04T06:13:30.749Z,3.10
2023-03-04T06:14:30.777Z,3.13
2023-03-04T06:15:30.731Z,3.13
2023-03-04T06:16:30.945Z,3.13
2023-03-04T06:17:30.692Z,3.07
2023-03-04T06:18:30.680Z,3.11
2023-03-04T06:19:30.689Z,3.21
2023-03-04T06:20:30.653Z,3.18
2023-03-04T06:21:30.651Z,3.22
2023-03-04T06:22:30.829Z,3.25
2023-03-04T06:23:30.609Z,3.23
2023-03-04T06:24:30.602Z,3.25
2023-03-04T06:25:30.571Z,3.16
2023-03-04T06:26:30.563Z,3.18
2023-03-04T06:27:30.749Z,3.19
2023-03-04T06:28:30.533Z,3.16
2023-03-04T06:29:30.542Z,3.16
2023-03-04T06:30:30.700Z,3.16
2023-03-04T06:31:30.519Z,3.23
2023-03-04T06:32:30.566Z,3.23
2023-03-04T06:33:30.481Z,3.26
2023-03-04T06:34:30.461Z,3.28
2023-03-04T06:35:30.539Z,3.22
2023-03-04T06:36:30.439Z,3.32
2023-03-04T06:37:30.601Z,3.29
2023-03-04T06:38:30.400Z,3.29
2023-03-04T06:39:30.383Z,3.32
2023-03-04T06:40:30.352Z,3.29
2023-03-04T06:41:30.342Z,3.31
2023-03-04T06:42:30.328Z,3.36
2023-03-04T06:43:30.325Z,3.29
2023-03-04T06:44:30.319Z,3.28
2023-03-04T06:45:30.279Z,3.29
2023-03-04T06:46:30.702Z,3.32
2023-03-04T06:47:30.274Z,3.31
2023-03-04T06:48:30.258Z,3.34
2023-03-04T06:49:30.229Z,3.44
2023-03-04T06:50:30.213Z,3.29
2023-03-04T06:51:30.221Z,3.37
2023-03-04T06:52:30.188Z,3.41
2023-03-04T06:53:30.182Z,3.41
2023-03-04T06:54:30.154Z,3.41
2023-03-04T06:55:30.157Z,3.42
2023-03-04T06:56:30.133Z,3.41
2023-03-04T06:57:30.116Z,3.40
2023-03-04T06:58:30.103Z,3.47
2023-03-04T06:59:30.086Z,3.50
2023-03-04T07:00:30.123Z,3.53
2023-03-04T07:01:30.073Z,3.48
2023-03-04T07:02:30.055Z,3.51
2023-03-04T07:03:30.035Z,3.47
2023-03-04T07:04:30.025Z,3.51
2023-03-04T07:05:30.013Z,3.50
2023-03-04T07:06:30.000Z,3.47
2023-03-04T07:07:29.996Z,3.58
2023-03-04T07:08:29.961Z,3.58
2023-03-04T07:09:29.957Z,3.45
2023-03-04T07:10:29.982Z,3.59
2023-03-04T07:11:29.924Z,3.55
2023-03-04T07:12:29.924Z,3.56
2023-03-04T07:13:29.882Z,3.62
2023-03-04T07:14:29.882Z,3.50
2023-03-04T07:15:29.869Z,3.53
2023-03-04T07:16:29.921Z,3.63
2023-03-04T07:17:29.868Z,3.65
2023-03-04T07:18:29.837Z,3.68
2023-03-04T07:19:30.094Z,3.69
2023-03-04T07:20:31.754Z,3.68
2023-03-04T07:21:29.821Z,3.65
2023-03-04T07:22:29.777Z,3.68
2023-03-04T07:23:29.767Z,3.68
2023-03-04T07:24:29.735Z,3.73
2023-03-04T07:25:29.749Z,3.73
2023-03-04T07:26:29.749Z,3.70
2023-03-04T07:27:29.732Z,3.80
2023-03-04T07:28:29.752Z,3.81
2023-03-04T07:29:29.660Z,3.69
2023-03-04T07:30:29.758Z,3.78
2023-03-04T07:31:29.704Z,3.81
2023-03-04T07:32:29.673Z,3.81
2023-03-04T07:33:29.602Z,3.76
2023-03-04T07:34:29.590Z,3.80
2023-03-04T07:35:29.605Z,3.80
2023-03-04T07:36:29.566Z,3.76
2023-03-04T07:37:29.548Z,3.84
2023-03-04T07:38:29.530Z,3.80
2023-03-04T07:39:29.580Z,3.91
2023-03-04T07:40:29.563Z,3.87
2023-03-04T07:41:29.497Z,3.86
2023-03-04T07:42:29.477Z,3.88
2023-03-04T07:43:29.464Z,3.94
2023-03-04T07:44:29.461Z,3.91
2023-03-04T07:45:29.434Z,3.96
2023-03-04T07:46:29.414Z,3.96
2023-03-04T07:47:29.409Z,3.96
2023-03-04T07:48:29.385Z,4.05
2023-03-04T07:49:29.387Z,3.96
2023-03-04T07:50:29.431Z,4.01
2023-03-04T07:51:29.381Z,4.04
2023-03-04T07:52:29.338Z,3.99
2023-03-04T07:53:29.358Z,4.08
2023-03-04T07:54:29.307Z,4.08
2023-03-04T07:55:29.400Z,4.12
2023-03-04T07:56:29.282Z,4.12
2023-03-04T07:57:29.282Z,4.13
2023-03-04T07:58:29.271Z,4.10
2023-03-04T07:59:29.250Z,4.08
2023-03-04T08:00:29.243Z,4.16
2023-03-04T08:01:29.211Z,4.22
2023-03-04T08:02:29.259Z,4.20
2023-03-04T08:03:29.198Z,4.19
2023-03-04T08:04:29.329Z,4.14
2023-03-04T08:05:29.164Z,4.14
2023-03-04T08:06:29.152Z,4.23
2023-03-04T08:07:29.143Z,4.26
2023-03-04T08:08:29.135Z,4.19
2023-03-04T08:09:29.112Z,4.24
2023-03-04T08:10:29.093Z,4.28
2023-03-04T08:11:29.114Z,4.16
2023-03-04T08:12:29.060Z,4.23
2023-03-04T08:13:29.163Z,4.23
2023-03-04T08:14:29.038Z,4.26
2023-03-04T08:15:29.023Z,4.22
2023-03-04T08:16:28.998Z,4.23
2023-03-04T08:17:28.987Z,4.34
2023-03-04T08:18:28.978Z,4.30
2023-03-04T08:19:28.964Z,4.32
2023-03-04T08:20:28.983Z,4.34
2023-03-04T08:21:28.945Z,4.34
2023-03-04T08:22:29.154Z,4.37
2023-03-04T08:23:28.977Z,4.34
2023-03-04T08:24:28.906Z,4.44
2023-03-04T08:25:28.872Z,4.40
2023-03-04T08:26:28.873Z,4.45
2023-03-04T08:27:29.083Z,4.41
2023-03-04T08:28:28.829Z,4.44
2023-03-04T08:29:28.806Z,4.42
2023-03-04T08:30:28.826Z,4.55
2023-03-04T08:31:28.952Z,4.58
2023-03-04T08:32:29.038Z,4.55
2023-03-04T08:33:28.767Z,4.55
2023-03-04T08:34:28.783Z,4.48
2023-03-04T08:35:28.804Z,4.52
2023-03-04T08:36:28.765Z,4.50
2023-03-04T08:37:28.757Z,4.58
2023-03-04T08:38:28.692Z,4.58
2023-03-04T08:39:28.716Z,4.66
2023-03-04T08:40:28.714Z,4.55
2023-03-04T08:41:28.732Z,4.66
2023-03-04T08:42:28.672Z,4.70
2023-03-04T08:43:28.663Z,4.70
2023-03-04T08:44:28.617Z,4.78
2023-03-04T08:45:28.629Z,4.73
2023-03-04T08:46:28.632Z,4.70
2023-03-04T08:47:28.604Z,4.68
2023-03-04T08:48:28.544Z,4.80
2023-03-04T08:49:28.575Z,4.74
2023-03-04T08:50:28.559Z,4.77
2023-03-04T08:51:28.526Z,4.80
2023-03-04T08:52:28.572Z,4.84
2023-03-04T08:53:28.474Z,4.86
2023-03-04T08:54:28.471Z,4.78
2023-03-04T08:55:28.474Z,4.82
2023-03-04T08:56:28.434Z,4.94
2023-03-04T08:57:28.447Z,4.87
2023-03-04T08:58:28.445Z,4.99
2023-03-04T08:59:28.462Z,4.93
2023-03-04T09:00:28.417Z,4.96
2023-03-04T09:01:28.475Z,4.92
2023-03-04T09:02:28.610Z,4.92
2023-03-04T09:03:28.464Z,5.00
2023-03-04T09:04:28.578Z,5.07
2023-03-04T09:05:28.371Z,5.14
2023-03-04T09:06:28.337Z,5.11
2023-03-04T09:07:28.400Z,5.18
2023-03-04T09:08:28.376Z,5.11
2023-03-04T09:09:28.361Z,5.15
2023-03-04T09:10:28.264Z,5.17
2023-03-04T09:11:28.229Z,5.29
2023-03-04T09:12:28.265Z,5.32
2023-03-04T09:13:28.240Z,5.41
2023-03-04T09:14:28.255Z,5.46
2023-03-04T09:15:28.233Z,5.53
2023-03-04T09:16:28.229Z,5.56
2023-03-04T09:17:28.162Z,5.51
2023-03-04T09:18:28.162Z,5.51
2023-03-04T09:19:28.174Z,5.61
2023-03-04T09:20:28.167Z,5.66
2023-03-04T09:21:28.126Z,5.65
2023-03-04T09:22:28.117Z,5.69
2023-03-04T09:23:28.128Z,5.69
2023-03-04T09:24:28.080Z,5.68
2023-03-04T09:25:28.116Z,5.75
2023-03-04T09:26:28.055Z,5.80
2023-03-04T09:27:28.070Z,5.69
2023-03-04T09:28:28.049Z,5.71
2023-03-04T09:29:28.002Z,5.84
2023-03-04T09:30:29.053Z,5.84
2023-03-04T09:31:28.063Z,5.83
2023-03-04T09:32:28.000Z,5.84
2023-03-04T09:33:27.972Z,5.91
2023-03-04T09:34:27.984Z,5.84
2023-03-04T09:35:27.930Z,5.89
2023-03-04T09:36:27.938Z,6.01
2023-03-04T09:37:27.899Z,5.93
2023-03-04T09:38:27.892Z,5.91
2023-03-04T09:39:27.869Z,5.87
2023-03-04T09:40:27.856Z,5.91
2023-03-04T09:41:27.839Z,5.89
2023-03-04T09:42:27.837Z,5.94
2023-03-04T09:43:27.813Z,6.01
2023-03-04T09:44:27.828Z,6.07
2023-03-04T09:45:27.817Z,6.08
2023-03-04T09:46:27.860Z,6.19
2023-03-04T09:47:27.800Z,6.22
2023-03-04T09:48:27.750Z,6.17
2023-03-04T09:49:27.744Z,6.30
2023-03-04T09:50:27.735Z,6.20
2023-03-04T09:51:27.736Z,6.12
2023-03-04T09:52:27.733Z,6.22
2023-03-04T09:53:27.693Z,6.19
2023-03-04T09:54:27.698Z,6.27
2023-03-04T09:55:27.666Z,6.30
2023-03-04T09:56:27.756Z,6.24
2023-03-04T09:57:27.669Z,6.26
2023-03-04T09:58:27.685Z,6.26
2023-03-04T09:59:27.642Z,6.20
2023-03-04T10:00:27.663Z,6.31
2023-03-04T10:01:27.788Z,6.36
2023-03-04T10:02:27.577Z,6.33
2023-03-04T10:03:27.620Z,6.35
2023-03-04T10:04:27.646Z,6.19
2023-03-04T10:05:27.553Z,6.22
2023-03-04T10:06:27.531Z,6.27
2023-03-04T10:07:27.548Z,6.31
2023-03-04T10:08:27.520Z,6.30
2023-03-04T10:09:27.498Z,6.33
2023-03-04T10:10:27.521Z,6.45
2023-03-04T10:11:27.459Z,6.38
2023-03-04T10:12:27.479Z,6.46
2023-03-04T10:13:27.445Z,6.46
2023-03-04T10:14:27.484Z,6.56
2023-03-04T10:15:27.451Z,6.56
2023-03-04T10:16:27.469Z,6.44
2023-03-04T10:17:27.411Z,6.54
2023-03-04T10:18:27.396Z,6.52
2023-03-04T10:19:27.392Z,6.49
2023-03-04T10:20:27.418Z,6.49
2023-03-04T10:21:27.379Z,6.38
2023-03-04T10:22:27.335Z,6.52
2023-03-04T10:23:27.324Z,6.52
2023-03-04T10:24:27.394Z,6.52
2023-03-04T10:25:27.304Z,6.54
2023-03-04T10:26:27.305Z,6.51
2023-03-04T10:27:27.285Z,6.52
2023-03-04T10:28:27.266Z,6.52
2023-03-04T10:29:27.259Z,6.57
2023-03-04T10:30:27.273Z,6.57
2023-03-04T10:31:27.282Z,6.67
2023-03-04T10:32:27.311Z,6.69
2023-03-04T10:33:27.232Z,6.70
2023-03-04T10:34:27.190Z,6.77
2023-03-04T10:35:27.236Z,6.77
2023-03-04T10:36:27.166Z,6.70
2023-03-04T10:37:27.161Z,6.70
2023-03-04T10:38:27.155Z,6.74
2023-03-04T10:39:27.139Z,6.74
2023-03-04T10:40:27.121Z,6.70
2023-03-04T10:41:27.102Z,6.69
2023-03-04T10:42:27.188Z,6.77
2023-03-04T10:43:27.050Z,6.70
2023-03-04T10:44:27.045Z,6.74
2023-03-04T10:45:27.071Z,6.72
2023-03-04T10:46:27.005Z,6.77
2023-03-04T10:47:27.011Z,6.77
2023-03-04T10:48:27.026Z,6.67
2023-03-04T10:49:26.980Z,6.64
2023-03-04T10:50:26.989Z,6.72
2023-03-04T10:51:27.023Z,6.60
2023-03-04T10:52:26.960Z,6.69
2023-03-04T10:53:26.920Z,6.74
2023-03-04T10:54:26.972Z,6.74
2023-03-04T10:55:26.963Z,6.78
2023-03-04T10:56:26.928Z,6.74
2023-03-04T10:57:26.886Z,6.75
2023-03-04T10:58:26.911Z,6.81
2023-03-04T10:59:26.856Z,6.74
2023-03-04T11:00:26.831Z,6.79
2023-03-04T11:01:26.904Z,6.63
2023-03-04T11:02:26.947Z,6.59
2023-03-04T11:03:29.400Z,6.60
2023-03-04T11:04:26.829Z,6.57
2023-03-04T11:05:26.844Z,6.60
2023-03-04T11:06:26.782Z,6.60
2023-03-04T11:07:26.798Z,6.75
2023-03-04T11:08:26.778Z,6.78
2023-03-04T11:09:26.720Z,6.70
2023-03-04T11:10:26.746Z,6.77
2023-03-04T11:11:26.733Z,6.74
2023-03-04T11:12:26.687Z,6.75
2023-03-04T11:13:26.708Z,6.66
2023-03-04T11:14:26.678Z,6.64
2023-03-04T11:15:26.657Z,6.69
2023-03-04T11:16:26.703Z,6.69
2023-03-04T11:17:26.634Z,6.75
2023-03-04T11:18:26.604Z,6.74
2023-03-04T11:19:26.606Z,6.74
2023-03-04T11:20:26.597Z,6.75
2023-03-04T11:21:26.601Z,6.75
2023-03-04T11:22:26.595Z,6.74
2023-03-04T11:23:27.023Z,6.79
2023-03-04T11:24:29.136Z,6.74
2023-03-04T11:25:26.517Z,6.81
2023-03-04T11:26:26.528Z,6.89
2023-03-04T11:27:26.504Z,6.78
2023-03-04T11:28:26.495Z,6.79
2023-03-04T11:29:26.480Z,6.84
2023-03-04T11:30:26.487Z,6.82
2023-03-04T11:31:26.566Z,6.87
2023-03-04T11:32:26.497Z,6.84
2023-03-04T11:33:26.485Z,6.81
2023-03-04T11:34:26.429Z,6.95
2023-03-04T11:35:26.461Z,6.82
2023-03-04T11:36:26.617Z,6.92
2023-03-04T11:37:26.442Z,6.96
2023-03-04T11:38:26.382Z,6.96
2023-03-04T11:39:26.407Z,6.95
2023-03-04T11:40:26.400Z,6.81
2023-03-04T11:41:26.349Z,6.70
2023-03-04T11:42:26.392Z,6.78
2023-03-04T11:43:26.357Z,6.77
2023-03-04T11:44:26.347Z,6.85
2023-03-04T11:45:29.738Z,6.87
2023-03-04T11:46:26.398Z,6.89
2023-03-04T11:47:26.475Z,6.82
2023-03-04T11:48:26.272Z,6.87
2023-03-04T11:49:26.300Z,6.85
2023-03-04T11:50:26.268Z,6.97
2023-03-04T11:51:26.281Z,6.96
2023-03-04T11:52:26.245Z,6.84
2023-03-04T11:53:26.241Z,6.95
2023-03-04T11:54:26.213Z,6.87
2023-03-04T11:55:26.217Z,6.87
2023-03-04T11:56:26.187Z,6.82
2023-03-04T11:57:26.173Z,6.87
2023-03-04T11:58:26.195Z,6.75
2023-03-04T11:59:26.178Z,6.81
2023-03-04T12:00:26.529Z,6.78
2023-03-04T12:01:26.142Z,6.79
2023-03-04T12:02:26.133Z,6.77
2023-03-04T12:03:26.182Z,6.74
2023-03-04T12:04:26.380Z,6.79
2023-03-04T12:05:26.067Z,6.79
2023-03-04T12:06:26.062Z,6.81
2023-03-04T12:07:26.098Z,6.79
2023-03-04T12:08:26.030Z,6.77
2023-03-04T12:09:26.042Z,6.77
2023-03-04T12:10:26.011Z,6.70
2023-03-04T12:11:26.065Z,6.75
2023-03-04T12:12:26.000Z,6.78
2023-03-04T12:13:25.965Z,6.77
2023-03-04T12:14:26.160Z,6.82
2023-03-04T12:15:26.226Z,6.75
2023-03-04T12:16:25.984Z,6.81
2023-03-04T12:17:25.949Z,6.84
2023-03-04T12:18:25.928Z,6.78
2023-03-04T12:19:25.903Z,6.84
2023-03-04T12:20:25.927Z,6.84
2023-03-04T12:21:25.872Z,6.85
2023-03-04T12:22:25.896Z,6.93
2023-03-04T12:23:25.881Z,6.96
2023-03-04T12:24:25.844Z,6.87
2023-03-04T12:25:25.825Z,6.85
2023-03-04T12:26:25.837Z,6.79
2023-03-04T12:27:25.834Z,6.82
2023-03-04T12:28:25.822Z,6.79
2023-03-04T12:29:25.800Z,6.84
2023-03-04T12:30:25.778Z,6.81
2023-03-04T12:31:25.837Z,6.81
2023-03-04T12:32:25.797Z,6.87
2023-03-04T12:33:25.767Z,6.79
2023-03-04T12:34:25.750Z,6.88
2023-03-04T12:35:25.779Z,6.82
2023-03-04T12:36:25.689Z,6.82
2023-03-04T12:37:25.682Z,6.79
2023-03-04T12:38:25.663Z,6.77
2023-03-04T12:39:25.652Z,6.75
2023-03-04T12:40:25.699Z,6.78
2023-03-04T12:41:25.632Z,6.74
2023-03-04T12:42:25.649Z,6.78
2023-03-04T12:43:25.631Z,6.77
2023-03-04T12:44:25.711Z,6.77
2023-03-04T12:45:25.648Z,6.78
2023-03-04T12:46:25.850Z,6.69
2023-03-04T12:47:25.554Z,6.78
2023-03-04T12:48:25.573Z,6.79
2023-03-04T12:49:25.531Z,6.74
2023-03-04T12:50:25.530Z,6.78
2023-03-04T12:51:25.526Z,6.74
2023-03-04T12:52:25.496Z,6.74
2023-03-04T12:53:25.549Z,6.77
2023-03-04T12:54:25.467Z,6.75
2023-03-04T12:55:25.453Z,6.77
2023-03-04T12:56:25.440Z,6.74
2023-03-04T12:57:25.463Z,6.77
2023-03-04T12:58:25.428Z,6.70
2023-03-04T12:59:25.450Z,6.67
2023-03-04T13:00:25.412Z,6.67
2023-03-04T13:01:25.396Z,6.70
2023-03-04T13:02:25.438Z,6.72
2023-03-04T13:03:25.508Z,6.77
2023-03-04T13:04:25.349Z,6.78
2023-03-04T13:05:25.346Z,6.82
2023-03-04T13:06:25.341Z,6.79
2023-03-04T13:07:25.523Z,6.87
2023-03-04T13:08:25.330Z,6.79
2023-03-04T13:09:25.331Z,6.81
2023-03-04T13:10:25.300Z,6.84
2023-03-04T13:11:25.284Z,6.95
2023-03-04T13:12:25.266Z,6.97
2023-03-04T13:13:25.248Z,6.81
2023-03-04T13:14:25.258Z,6.81
2023-03-04T13:15:25.327Z,6.84
2023-03-04T13:16:25.229Z,6.84
2023-03-04T13:17:25.176Z,6.84
2023-03-04T13:18:25.176Z,6.84
2023-03-04T13:19:25.178Z,6.82
2023-03-04T13:20:25.231Z,6.79